Time;durP1;ratioP1;P1;durP2;ratioP2;P2;SDS_P1;SDS_P2;PMS_P1;PMS_P2;Temp;Humidity;BMP_temperature;BMP_pressure;BME280_temperature;BME280_humidity;BME280_pressure;Samples;Min_cycle;Max_cycle;Signal;HPM_P1;HPM_P2
2021/12/31 00:01:04;;;;;;;14.30;8.05;;;;;;;;;;5095787;28;20024;-77
2021/12/31 00:03:30;;;;;;;16.50;8.95;;;;;;;;;;5096166;28;20031;-76
2021/12/31 00:05:56;;;;;;;18.90;9.73;;;;;;;;;;5096047;28;20024;-76
2021/12/31 00:08:22;;;;;;;14.75;8.55;;;;;;;;;;5095440;28;20448;-76
2021/12/31 00:10:49;;;;;;;14.52;8.75;;;;;;;;;;5095772;28;20027;-76
2021/12/31 00:13:15;;;;;;;16.52;8.70;;;;;;;;;;5096114;28;20024;-76
2021/12/31 00:15:41;;;;;;;16.35;9.30;;;;;;;;;;5095442;28;20484;-76
2021/12/31 00:18:07;;;;;;;19.45;10.00;;;;;;;;;;5095814;28;20052;-76
2021/12/31 00:20:34;;;;;;;16.92;9.38;;;;;;;;;;5096064;28;20031;-76
2021/12/31 00:25:27;;;;;;;19.77;9.45;;;;;;;;;;5095997;28;20058;-76
2021/12/31 00:27:53;;;;;;;21.65;9.18;;;;;;;;;;5095197;28;20028;-75
2021/12/31 00:30:20;;;;;;;14.98;8.45;;;;;;;;;;5095895;28;20028;-76
2021/12/31 00:32:46;;;;;;;18.63;8.80;;;;;;;;;;5095814;28;20090;-75
2021/12/31 00:35:13;;;;;;;20.95;9.52;;;;;;;;;;5095116;28;20022;-75
2021/12/31 00:37:39;;;;;;;15.18;8.77;;;;;;;;;;5095273;28;20464;-76
2021/12/31 00:40:08;;;;;;;16.73;9.50;;;;;;;;;;5094171;28;20411;-76
2021/12/31 00:42:34;;;;;;;19.60;9.85;;;;;;;;;;5095167;28;20031;-76
2021/12/31 00:45:00;;;;;;;17.15;8.98;;;;;;;;;;5095351;28;20020;-76
2021/12/31 00:47:26;;;;;;;17.75;9.68;;;;;;;;;;5095554;28;20047;-76
2021/12/31 00:49:53;;;;;;;18.48;9.57;;;;;;;;;;5094819;28;20034;-76
2021/12/31 00:52:19;;;;;;;17.00;8.95;;;;;;;;;;5095224;28;20020;-76
2021/12/31 00:54:45;;;;;;;17.15;9.45;;;;;;;;;;5095481;28;20031;-75
2021/12/31 00:57:11;;;;;;;18.02;9.93;;;;;;;;;;5094852;28;20036;-77
2021/12/31 00:59:38;;;;;;;15.35;8.68;;;;;;;;;;5095559;28;20402;-75
2021/12/31 01:02:05;;;;;;;15.80;8.38;;;;;;;;;;5095036;28;20104;-75
2021/12/31 01:04:33;;;;;;;14.07;8.65;;;;;;;;;;5094627;28;20035;-77
2021/12/31 01:07:01;;;;;;;14.65;7.93;;;;;;;;;;5094856;28;20024;-76
2021/12/31 01:09:28;;;;;;;15.70;8.73;;;;;;;;;;5095268;28;20095;-76
2021/12/31 01:11:55;;;;;;;15.55;8.25;;;;;;;;;;5094461;28;20540;-75
2021/12/31 01:14:50;;;;;;;15.38;8.00;;;;;;;;;;5094740;28;20020;-76
2021/12/31 01:17:22;;;;;;;15.40;7.45;;;;;;;;;;5094234;28;20034;-76
2021/12/31 01:19:49;;;;;;;16.88;8.50;;;;;;;;;;5094685;28;20143;-76
2021/12/31 01:22:16;;;;;;;13.98;7.90;;;;;;;;;;5093805;28;20024;-76
2021/12/31 01:24:42;;;;;;;16.15;8.48;;;;;;;;;;5094143;28;20032;-75
2021/12/31 01:27:09;;;;;;;13.00;7.22;;;;;;;;;;5094421;28;20024;-76
2021/12/31 01:29:35;;;;;;;12.77;7.10;;;;;;;;;;5094505;28;20028;-76
2021/12/31 01:32:01;;;;;;;12.00;6.57;;;;;;;;;;5094087;28;20016;-75
2021/12/31 01:34:27;;;;;;;13.90;6.95;;;;;;;;;;5094509;28;20480;-75
2021/12/31 01:36:54;;;;;;;11.95;6.88;;;;;;;;;;5093981;28;20468;-75
2021/12/31 01:39:20;;;;;;;13.55;7.72;;;;;;;;;;5093914;28;20016;-76
2021/12/31 01:41:46;;;;;;;14.75;8.45;;;;;;;;;;5094380;28;20526;-76
2021/12/31 01:44:12;;;;;;;13.02;7.82;;;;;;;;;;5094092;28;20030;-76
2021/12/31 01:46:52;;;;;;;13.32;7.15;;;;;;;;;;5093944;28;20028;-76
2021/12/31 01:49:21;;;;;;;12.65;6.53;;;;;;;;;;5094263;28;20067;-76
2021/12/31 01:51:47;;;;;;;12.85;7.28;;;;;;;;;;5094295;28;20450;-76
2021/12/31 01:54:13;;;;;;;13.05;7.43;;;;;;;;;;5093733;28;20028;-75
2021/12/31 01:56:40;;;;;;;13.70;6.90;;;;;;;;;;5094200;28;20032;-75
2021/12/31 01:59:07;;;;;;;11.63;6.28;;;;;;;;;;5093824;28;20032;-75
2021/12/31 02:01:35;;;;;;;11.98;6.15;;;;;;;;;;5093897;28;20089;-76
2021/12/31 02:04:02;;;;;;;12.38;6.68;;;;;;;;;;5093798;28;20020;-76
2021/12/31 02:06:28;;;;;;;13.35;6.97;;;;;;;;;;5093860;28;20511;-76
2021/12/31 02:08:54;;;;;;;13.48;6.53;;;;;;;;;;5093928;28;20020;-76
2021/12/31 02:11:21;;;;;;;12.85;6.55;;;;;;;;;;5093741;28;20031;-77
2021/12/31 02:13:47;;;;;;;13.98;7.22;;;;;;;;;;5093425;28;20547;-76
2021/12/31 02:16:13;;;;;;;12.07;6.78;;;;;;;;;;5092412;28;20028;-77
2021/12/31 02:18:43;;;;;;;13.52;5.63;;;;;;;;;;5093729;28;20106;-76
2021/12/31 02:21:13;;;;;;;13.00;6.35;;;;;;;;;;5093284;28;20020;-76
2021/12/31 02:23:44;;;;;;;11.25;5.88;;;;;;;;;;5093644;28;20024;-76
2021/12/31 02:26:11;;;;;;;11.18;6.03;;;;;;;;;;5093721;28;20019;-76
2021/12/31 02:28:38;;;;;;;10.73;6.35;;;;;;;;;;5093169;28;20475;-76
2021/12/31 02:31:04;;;;;;;14.10;7.78;;;;;;;;;;5093507;28;20031;-76
2021/12/31 02:33:31;;;;;;;14.13;6.80;;;;;;;;;;5093391;28;20028;-76
2021/12/31 02:35:58;;;;;;;14.00;7.45;;;;;;;;;;5092941;28;20035;-76
2021/12/31 02:38:24;;;;;;;11.90;6.32;;;;;;;;;;5093445;28;20488;-76
2021/12/31 02:40:50;;;;;;;10.88;5.82;;;;;;;;;;5093355;28;20031;-76
2021/12/31 02:43:17;;;;;;;13.75;7.07;;;;;;;;;;5093035;28;20026;-76
2021/12/31 02:45:43;;;;;;;13.23;6.43;;;;;;;;;;5093366;28;20043;-76
2021/12/31 02:48:09;;;;;;;14.70;6.93;;;;;;;;;;5093662;28;20407;-77
2021/12/31 02:50:39;;;;;;;12.73;6.65;;;;;;;;;;5092983;28;20031;-76
2021/12/31 02:53:14;;;;;;;12.63;6.25;;;;;;;;;;5093329;28;20012;-76
2021/12/31 02:55:41;;;;;;;12.63;6.57;;;;;;;;;;5091604;28;20028;-75
2021/12/31 02:58:08;;;;;;;11.30;6.20;;;;;;;;;;5093087;28;20040;-75
2021/12/31 03:00:35;;;;;;;11.95;6.60;;;;;;;;;;5093736;28;20024;-76
2021/12/31 03:03:02;;;;;;;12.40;6.90;;;;;;;;;;5092957;28;20024;-76
2021/12/31 03:05:29;;;;;;;12.77;7.07;;;;;;;;;;5093233;28;20020;-77
2021/12/31 03:07:56;;;;;;;11.43;6.20;;;;;;;;;;5093142;28;20508;-76
2021/12/31 03:10:23;;;;;;;11.07;6.57;;;;;;;;;;5092777;28;20073;-76
2021/12/31 03:12:52;;;;;;;13.48;6.60;;;;;;;;;;5093147;28;20054;-76
2021/12/31 03:15:18;;;;;;;12.00;6.50;;;;;;;;;;5093071;28;20100;-76
2021/12/31 03:17:45;;;;;;;11.38;6.57;;;;;;;;;;5092887;28;20489;-76
2021/12/31 03:20:16;;;;;;;12.48;6.68;;;;;;;;;;5093013;28;20044;-76
2021/12/31 03:22:43;;;;;;;13.65;6.38;;;;;;;;;;5093163;28;20016;-76
2021/12/31 03:25:10;;;;;;;12.95;6.57;;;;;;;;;;5091309;28;20065;-76
2021/12/31 03:27:37;;;;;;;13.98;7.03;;;;;;;;;;5093175;28;20032;-76
2021/12/31 03:30:04;;;;;;;13.40;6.63;;;;;;;;;;5093042;28;20026;-75
2021/12/31 03:32:31;;;;;;;13.63;6.70;;;;;;;;;;5092549;28;20027;-76
2021/12/31 03:34:57;;;;;;;12.07;6.78;;;;;;;;;;5091629;28;20561;-75
2021/12/31 03:37:23;;;;;;;12.27;6.38;;;;;;;;;;5092820;28;20052;-75
2021/12/31 03:39:49;;;;;;;10.05;5.43;;;;;;;;;;5092488;28;20020;-76
2021/12/31 03:42:18;;;;;;;13.77;5.78;;;;;;;;;;5092896;28;20476;-76
2021/12/31 03:44:44;;;;;;;11.45;5.43;;;;;;;;;;5094245;28;20099;-76
2021/12/31 03:47:10;;;;;;;11.07;5.47;;;;;;;;;;5095204;28;20024;-76
2021/12/31 03:49:36;;;;;;;9.27;5.13;;;;;;;;;;5096630;28;20092;-77
2021/12/31 03:52:03;;;;;;;11.20;5.85;;;;;;;;;;5096007;28;20028;-76
2021/12/31 03:54:29;;;;;;;10.27;5.28;;;;;;;;;;5096645;28;20021;-76
2021/12/31 03:56:55;;;;;;;10.75;5.35;;;;;;;;;;5096212;28;20021;-75
2021/12/31 03:59:21;;;;;;;9.52;5.53;;;;;;;;;;5095902;28;20028;-75
2021/12/31 04:01:48;;;;;;;10.07;5.50;;;;;;;;;;5096442;28;20404;-76
2021/12/31 04:04:14;;;;;;;10.35;5.05;;;;;;;;;;5096134;28;20024;-76
2021/12/31 04:06:41;;;;;;;12.02;6.00;;;;;;;;;;5094502;28;20024;-76
2021/12/31 04:09:07;;;;;;;10.35;5.40;;;;;;;;;;5096181;28;20091;-76
2021/12/31 04:11:33;;;;;;;10.98;5.53;;;;;;;;;;5096063;28;20031;-75
2021/12/31 04:14:00;;;;;;;10.05;5.75;;;;;;;;;;5095641;28;20028;-76
2021/12/31 04:16:26;;;;;;;12.07;6.05;;;;;;;;;;5096049;28;20020;-75
2021/12/31 04:18:52;;;;;;;11.13;5.90;;;;;;;;;;5095936;28;20021;-76
2021/12/31 04:21:20;;;;;;;11.13;5.38;;;;;;;;;;5095554;28;20555;-75
2021/12/31 04:23:48;;;;;;;13.80;6.63;;;;;;;;;;5095847;28;20028;-75
2021/12/31 04:26:14;;;;;;;14.35;7.05;;;;;;;;;;5095777;28;20043;-76
2021/12/31 04:28:41;;;;;;;13.07;7.63;;;;;;;;;;5095346;28;20024;-76
2021/12/31 04:31:07;;;;;;;14.45;6.93;;;;;;;;;;5095924;28;20061;-76
2021/12/31 04:33:33;;;;;;;14.93;7.15;;;;;;;;;;5095675;28;20059;-75
2021/12/31 04:35:59;;;;;;;9.60;5.25;;;;;;;;;;5095029;28;20016;-75
2021/12/31 04:38:25;;;;;;;12.52;6.32;;;;;;;;;;5095540;28;20040;-75
2021/12/31 04:40:51;;;;;;;12.63;6.13;;;;;;;;;;5095068;28;20021;-75
2021/12/31 04:43:18;;;;;;;11.35;5.80;;;;;;;;;;5094140;28;20024;-75
2021/12/31 04:45:44;;;;;;;11.60;5.45;;;;;;;;;;5095430;28;20095;-75
2021/12/31 04:48:10;;;;;;;10.02;5.07;;;;;;;;;;5093653;28;20091;-76
2021/12/31 04:50:36;;;;;;;12.00;6.07;;;;;;;;;;5095273;28;20020;-76
2021/12/31 04:53:04;;;;;;;11.52;5.53;;;;;;;;;;5095401;28;20138;-76
2021/12/31 04:55:30;;;;;;;11.32;5.93;;;;;;;;;;5094973;28;20372;-76
2021/12/31 04:57:57;;;;;;;11.85;6.40;;;;;;;;;;5095123;28;20415;-76
2021/12/31 05:00:23;;;;;;;13.85;6.60;;;;;;;;;;5095610;28;20035;-75
2021/12/31 05:02:49;;;;;;;13.13;6.28;;;;;;;;;;5094643;28;20091;-76
2021/12/31 05:05:16;;;;;;;13.05;5.43;;;;;;;;;;5095081;28;20099;-76
2021/12/31 05:07:42;;;;;;;12.82;6.50;;;;;;;;;;5095031;28;20021;-75
2021/12/31 05:10:09;;;;;;;10.65;5.15;;;;;;;;;;5094411;28;20422;-75
2021/12/31 05:12:37;;;;;;;10.95;4.47;;;;;;;;;;5095095;28;20448;-75
2021/12/31 05:15:08;;;;;;;9.95;5.07;;;;;;;;;;5095053;28;20012;-76
2021/12/31 05:17:34;;;;;;;8.52;4.47;;;;;;;;;;5094315;28;20062;-75
2021/12/31 05:20:00;;;;;;;12.20;6.03;;;;;;;;;;5094615;28;20045;-73
2021/12/31 05:22:27;;;;;;;13.32;6.63;;;;;;;;;;5094629;28;20103;-73
2021/12/31 05:24:53;;;;;;;10.93;5.70;;;;;;;;;;5094133;28;20016;-73
2021/12/31 05:27:19;;;;;;;10.90;5.57;;;;;;;;;;5094784;28;20480;-73
2021/12/31 05:29:45;;;;;;;11.75;6.30;;;;;;;;;;5094451;28;20024;-72
2021/12/31 05:32:11;;;;;;;8.95;5.15;;;;;;;;;;5093936;28;20028;-72
2021/12/31 05:34:38;;;;;;;11.35;5.88;;;;;;;;;;5094402;28;20059;-72
2021/12/31 05:37:04;;;;;;;12.10;5.97;;;;;;;;;;5094215;28;20068;-73
2021/12/31 05:39:30;;;;;;;11.15;5.90;;;;;;;;;;5094176;28;20104;-72
2021/12/31 05:41:56;;;;;;;13.38;6.40;;;;;;;;;;5094277;28;20024;-72
2021/12/31 05:44:23;;;;;;;10.77;5.22;;;;;;;;;;5093864;28;20024;-73
2021/12/31 05:46:50;;;;;;;11.52;5.95;;;;;;;;;;5094045;28;20473;-72
2021/12/31 05:49:17;;;;;;;13.00;5.88;;;;;;;;;;5094325;28;20427;-74
2021/12/31 05:51:43;;;;;;;13.13;6.85;;;;;;;;;;5093917;28;20107;-72
2021/12/31 05:54:09;;;;;;;15.13;7.70;;;;;;;;;;5092826;28;20027;-73
2021/12/31 05:56:35;;;;;;;13.35;5.68;;;;;;;;;;5093958;28;20031;-73
2021/12/31 05:59:01;;;;;;;15.23;6.65;;;;;;;;;;5093756;28;20024;-74
2021/12/31 06:01:28;;;;;;;18.20;8.45;;;;;;;;;;5093964;28;20020;-74
2021/12/31 06:03:54;;;;;;;16.35;8.52;;;;;;;;;;5093874;28;20034;-73
2021/12/31 06:06:20;;;;;;;12.27;6.30;;;;;;;;;;5092026;28;20460;-72
2021/12/31 06:08:46;;;;;;;11.88;6.35;;;;;;;;;;5093646;28;20046;-72
2021/12/31 06:11:12;;;;;;;15.48;7.65;;;;;;;;;;5093900;28;20024;-74
2021/12/31 06:13:39;;;;;;;14.20;7.50;;;;;;;;;;5093604;28;20418;-73
2021/12/31 06:16:06;;;;;;;20.67;11.55;;;;;;;;;;5094214;28;20024;-72
2021/12/31 06:18:32;;;;;;;20.88;11.35;;;;;;;;;;5093893;28;20089;-73
2021/12/31 06:20:59;;;;;;;14.38;8.30;;;;;;;;;;5093244;28;20024;-74
2021/12/31 06:23:25;;;;;;;16.85;9.63;;;;;;;;;;5093718;28;20028;-72
2021/12/31 06:25:51;;;;;;;13.68;7.13;;;;;;;;;;5093462;28;20031;-71
2021/12/31 06:28:17;;;;;;;23.70;15.02;;;;;;;;;;5093211;28;20024;-71
2021/12/31 06:30:43;;;;;;;24.83;13.98;;;;;;;;;;5092544;28;20055;-71
2021/12/31 06:33:10;;;;;;;24.08;14.88;;;;;;;;;;5088343;28;20020;-71
2021/12/31 06:35:36;;;;;;;24.80;13.98;;;;;;;;;;5092965;28;20028;-71
2021/12/31 06:38:03;;;;;;;25.17;13.05;;;;;;;;;;5093128;28;20040;-74
2021/12/31 06:40:31;;;;;;;20.58;11.90;;;;;;;;;;5091800;28;20111;-71
2021/12/31 06:42:58;;;;;;;20.45;11.27;;;;;;;;;;5092202;28;20024;-73
2021/12/31 06:45:24;;;;;;;17.95;11.13;;;;;;;;;;5092722;28;20035;-71
2021/12/31 06:47:50;;;;;;;16.92;10.85;;;;;;;;;;5092680;28;20020;-72
2021/12/31 06:50:17;;;;;;;38.47;18.80;;;;;;;;;;5093182;28;20387;-72
2021/12/31 06:52:43;;;;;;;45.05;23.45;;;;;;;;;;5092979;28;20020;-72
2021/12/31 06:55:09;;;;;;;37.38;20.17;;;;;;;;;;5092690;28;20028;-71
2021/12/31 06:57:36;;;;;;;43.60;22.10;;;;;;;;;;5092083;28;20036;-70
2021/12/31 07:00:06;;;;;;;32.80;20.05;;;;;;;;;;5092464;28;20020;-73
2021/12/31 07:02:32;;;;;;;33.67;20.48;;;;;;;;;;5090443;28;20050;-71
2021/12/31 07:04:58;;;;;;;36.03;21.60;;;;;;;;;;5091202;28;20040;-73
2021/12/31 07:07:24;;;;;;;50.70;28.42;;;;;;;;;;5091006;28;20114;-70
2021/12/31 07:09:51;;;;;;;46.55;27.27;;;;;;;;;;5090485;28;20027;-72
2021/12/31 07:12:17;;;;;;;43.20;23.13;;;;;;;;;;5090742;28;20024;-72
2021/12/31 07:14:43;;;;;;;21.95;14.10;;;;;;;;;;5090891;28;20027;-69
2021/12/31 07:17:10;;;;;;;19.40;12.07;;;;;;;;;;5092137;28;20095;-70
2021/12/31 07:19:36;;;;;;;26.60;16.30;;;;;;;;;;5094389;28;20077;-71
2021/12/31 07:22:03;;;;;;;50.38;31.35;;;;;;;;;;5096542;28;20527;-73
2021/12/31 07:24:29;;;;;;;58.47;36.42;;;;;;;;;;5096442;28;20472;-72
2021/12/31 07:26:55;;;;;;;59.40;39.15;;;;;;;;;;5096551;28;20028;-73
2021/12/31 07:29:21;;;;;;;59.95;39.75;;;;;;;;;;5096627;28;20087;-72
2021/12/31 07:31:47;;;;;;;57.58;37.85;;;;;;;;;;5095472;28;20028;-72
2021/12/31 07:34:14;;;;;;;74.28;47.10;;;;;;;;;;5096324;28;20056;-71
2021/12/31 07:36:40;;;;;;;88.05;56.08;;;;;;;;;;5095795;28;20044;-73
2021/12/31 07:39:08;;;;;;;63.70;40.83;;;;;;;;;;5096239;28;20021;-74
2021/12/31 07:41:35;;;;;;;54.22;33.42;;;;;;;;;;5094901;28;20032;-71
2021/12/31 07:44:01;;;;;;;36.97;21.08;;;;;;;;;;5095883;28;20032;-72
2021/12/31 07:46:27;;;;;;;31.08;20.77;;;;;;;;;;5096219;28;20046;-72
2021/12/31 07:48:54;;;;;;;37.40;20.52;;;;;;;;;;5095908;28;20028;-72
2021/12/31 07:51:20;;;;;;;42.80;21.90;;;;;;;;;;5094209;28;20101;-73
2021/12/31 07:53:46;;;;;;;63.70;36.25;;;;;;;;;;5096178;28;20024;-71
2021/12/31 07:56:12;;;;;;;44.55;26.35;;;;;;;;;;5096181;28;20061;-72
2021/12/31 07:58:39;;;;;;;48.25;29.35;;;;;;;;;;5095617;28;20067;-73
2021/12/31 08:01:05;;;;;;;37.95;21.27;;;;;;;;;;5095888;28;20028;-74
2021/12/31 08:03:33;;;;;;;36.45;20.83;;;;;;;;;;5094161;28;20480;-74
2021/12/31 08:05:59;;;;;;;52.85;33.03;;;;;;;;;;5095045;28;20024;-72
2021/12/31 08:08:25;;;;;;;38.90;24.38;;;;;;;;;;5095184;28;20031;-70
2021/12/31 08:10:51;;;;;;;36.13;21.17;;;;;;;;;;5095842;28;20431;-72
2021/12/31 08:13:18;;;;;;;27.58;18.40;;;;;;;;;;5095099;28;20035;-70
2021/12/31 08:15:44;;;;;;;54.50;28.92;;;;;;;;;;5096100;28;20467;-69
2021/12/31 08:18:10;;;;;;;44.53;30.75;;;;;;;;;;5095586;28;20036;-71
2021/12/31 08:20:37;;;;;;;34.95;22.00;;;;;;;;;;5095194;28;20422;-70
2021/12/31 08:23:10;;;;;;;46.05;24.15;;;;;;;;;;5095392;28;20063;-71
2021/12/31 08:25:36;;;;;;;;;;;;;;;;;;5095896;28;20020;-72
2021/12/31 08:28:02;;;;;;;39.45;23.17;;;;;;;;;;5095306;28;19904;-71
2021/12/31 08:30:28;;;;;;;51.22;27.48;;;;;;;;;;5094994;28;20028;-70
2021/12/31 08:32:55;;;;;;;39.72;21.92;;;;;;;;;;5094856;28;20032;-71
2021/12/31 08:35:21;;;;;;;30.80;16.52;;;;;;;;;;5095877;28;20040;-70
2021/12/31 08:37:47;;;;;;;36.00;22.27;;;;;;;;;;5095136;28;20462;-72
2021/12/31 08:40:13;;;;;;;25.42;16.00;;;;;;;;;;5094916;28;20020;-74
2021/12/31 08:42:40;;;;;;;22.73;12.80;;;;;;;;;;5095234;28;20031;-69
2021/12/31 08:45:06;;;;;;;30.15;19.40;;;;;;;;;;5094900;28;20017;-71
2021/12/31 08:47:33;;;;;;;25.38;16.50;;;;;;;;;;5093308;28;20388;-70
2021/12/31 08:49:59;;;;;;;20.23;11.80;;;;;;;;;;5094908;28;20127;-71
2021/12/31 08:52:25;;;;;;;21.65;14.32;;;;;;;;;;5094759;28;20024;-71
2021/12/31 08:54:51;;;;;;;25.42;14.15;;;;;;;;;;5094534;28;20044;-74
2021/12/31 08:57:18;;;;;;;40.30;25.25;;;;;;;;;;5094724;28;20019;-70
2021/12/31 08:59:44;;;;;;;42.15;24.83;;;;;;;;;;5094873;28;20377;-70
2021/12/31 09:02:11;;;;;;;32.83;20.95;;;;;;;;;;5094374;28;20522;-70
2021/12/31 09:04:37;;;;;;;28.17;17.25;;;;;;;;;;5094794;28;20035;-75
2021/12/31 09:07:03;;;;;;;38.75;21.63;;;;;;;;;;5094518;28;20028;-73
2021/12/31 09:09:30;;;;;;;26.20;13.15;;;;;;;;;;5094236;28;20383;-72
2021/12/31 09:11:56;;;;;;;32.83;20.52;;;;;;;;;;5094376;28;20476;-70
2021/12/31 09:14:23;;;;;;;23.75;13.32;;;;;;;;;;5094488;28;20035;-69
2021/12/31 09:16:49;;;;;;;22.50;14.95;;;;;;;;;;5093898;28;20032;-71
2021/12/31 09:19:16;;;;;;;24.50;14.27;;;;;;;;;;5094379;28;20040;-71
2021/12/31 09:21:42;;;;;;;26.48;14.60;;;;;;;;;;5094438;28;20024;-71
2021/12/31 09:24:08;;;;;;;32.28;19.02;;;;;;;;;;5094355;28;20051;-73
2021/12/31 09:26:35;;;;;;;27.38;16.73;;;;;;;;;;5094320;28;20035;-71
2021/12/31 09:29:01;;;;;;;16.00;7.90;;;;;;;;;;5094276;28;20049;-71
2021/12/31 09:32:19;;;;;;;14.98;8.10;;;;;;;;;;5111114;27;20396;-72
2021/12/31 09:34:48;;;;;;;17.25;9.07;;;;;;;;;;5110627;28;20028;-70
2021/12/31 09:37:14;;;;;;;19.83;8.85;;;;;;;;;;5110345;28;20036;-70
2021/12/31 09:39:40;;;;;;;19.80;11.40;;;;;;;;;;5110821;28;20449;-71
2021/12/31 09:43:08;;;;;;;15.23;5.85;;;;;;;;;;5110874;27;20509;-72
2021/12/31 09:45:44;;;;;;;14.35;6.85;;;;;;;;;;5070718;28;20387;-72
2021/12/31 09:51:28;;;;;;;16.88;9.18;;;;;;;;;;5110522;27;20757;-75
2021/12/31 09:56:07;;;;;;;16.27;8.95;;;;;;;;;;5111385;27;20404;-73
2021/12/31 09:58:42;;;;;;;23.27;10.05;;;;;;;;;;5110759;27;20902;-72
2021/12/31 10:02:36;;;;;;;19.55;10.57;;;;;;;;;;5111031;27;20385;-74
2021/12/31 10:06:13;;;;;;;16.13;8.95;;;;;;;;;;5110474;27;20389;-71
2021/12/31 10:08:46;;;;;;;14.63;7.95;;;;;;;;;;5111279;28;20107;-74
2021/12/31 10:11:12;;;;;;;;;;;;;;;;;;5111586;28;20024;-75
2021/12/31 10:13:40;;;;;;;19.42;10.35;;;;;;;;;;5109375;28;19904;-77
2021/12/31 10:18:10;;;;;;;21.17;10.27;;;;;;;;;;5111507;27;20396;-77
2021/12/31 10:20:49;;;;;;;18.02;10.48;;;;;;;;;;5110836;28;20027;-76
2021/12/31 10:25:25;;;;;;;24.15;12.63;;;;;;;;;;5112026;27;20400;-78
2021/12/31 10:28:07;;;;;;;24.15;10.70;;;;;;;;;;5111464;28;20038;-78
2021/12/31 10:30:34;;;;;;;20.88;11.82;;;;;;;;;;5111224;28;20081;-76
2021/12/31 10:33:00;;;;;;;19.27;10.00;;;;;;;;;;5110684;28;20110;-76
2021/12/31 10:35:26;;;;;;;14.00;6.70;;;;;;;;;;5111104;28;20024;-77
2021/12/31 10:38:40;;;;;;;25.60;14.02;;;;;;;;;;5111627;27;20757;-77
2021/12/31 10:41:24;;;;;;;24.05;15.10;;;;;;;;;;5110994;27;20389;-76
2021/12/31 10:44:43;;;;;;;19.73;13.00;;;;;;;;;;5111540;27;20384;-75
2021/12/31 10:49:22;;;;;;;25.45;9.63;;;;;;;;;;5112005;27;20384;-76
2021/12/31 10:53:16;;;;;;;17.27;8.13;;;;;;;;;;5111583;27;20108;-78
2021/12/31 10:55:44;;;;;;;20.85;12.63;;;;;;;;;;5111059;28;20396;-78
2021/12/31 10:58:14;;;;;;;27.40;13.82;;;;;;;;;;5111549;28;20080;-77
2021/12/31 11:04:31;;;;;;;38.20;14.05;;;;;;;;;;5111911;27;20404;-77
2021/12/31 11:06:57;;;;;;;18.48;9.75;;;;;;;;;;5111792;28;20034;-77
2021/12/31 11:10:17;;;;;;;15.90;8.75;;;;;;;;;;5112766;27;20450;-79
2021/12/31 11:12:47;;;;;;;15.55;8.15;;;;;;;;;;5111175;28;20431;-78
2021/12/31 11:15:14;;;;;;;23.48;10.52;;;;;;;;;;5110803;28;20415;-78
2021/12/31 11:19:31;;;;;;;20.73;8.95;;;;;;;;;;5112060;27;20400;-78
2021/12/31 11:23:45;;;;;;;19.05;10.20;;;;;;;;;;5110771;27;20393;-77
2021/12/31 11:28:46;;;;;;;12.07;6.03;;;;;;;;;;5111702;27;20401;-77
2021/12/31 11:34:37;;;;;;;14.63;8.43;;;;;;;;;;5112036;27;20381;-78
2021/12/31 11:41:37;;;;;;;18.48;10.10;;;;;;;;;;5111134;27;20393;-78
2021/12/31 11:44:24;;;;;;;21.35;9.15;;;;;;;;;;5110999;27;20380;-76
2021/12/31 11:46:51;;;;;;;12.55;6.05;;;;;;;;;;5111302;28;20092;-77
2021/12/31 11:49:26;;;;;;;17.55;7.95;;;;;;;;;;5111039;28;20020;-79
2021/12/31 11:53:21;;;;;;;20.25;8.40;;;;;;;;;;5111438;27;20350;-77
2021/12/31 11:55:47;;;;;;;18.20;6.82;;;;;;;;;;5111158;28;20066;-76
2021/12/31 12:02:20;;;;;;;22.48;11.50;;;;;;;;;;5111755;27;20393;-77
2021/12/31 12:05:08;;;;;;;20.48;11.55;;;;;;;;;;5110761;28;20035;-77
2021/12/31 12:07:37;;;;;;;22.45;12.52;;;;;;;;;;5111424;28;20026;-76
2021/12/31 12:12:02;;;;;;;19.80;12.32;;;;;;;;;;5111170;27;20388;-77
2021/12/31 12:14:37;;;;;;;16.65;10.02;;;;;;;;;;5111219;28;20030;-75
2021/12/31 12:17:04;;;;;;;20.38;10.73;;;;;;;;;;5111377;28;20055;-75
2021/12/31 12:19:53;;;;;;;16.80;9.52;;;;;;;;;;5110863;28;20081;-75
2021/12/31 12:26:07;;;;;;;20.95;13.55;;;;;;;;;;5131566;27;20495;-76
2021/12/31 12:28:33;;;;;;;27.63;15.68;;;;;;;;;;5111163;28;20032;-76
2021/12/31 12:31:05;;;;;;;26.67;16.48;;;;;;;;;;5110972;28;20035;-76
2021/12/31 12:36:00;;;;;;;26.92;16.17;;;;;;;;;;5111572;27;21029;-76
2021/12/31 12:39:00;;;;;;;23.25;15.13;;;;;;;;;;5111634;27;20389;-75
2021/12/31 12:41:27;;;;;;;29.05;18.27;;;;;;;;;;5110762;28;20059;-75
2021/12/31 12:43:53;;;;;;;25.40;14.88;;;;;;;;;;5111073;28;20047;-76
2021/12/31 12:47:54;;;;;;;23.95;12.35;;;;;;;;;;5110925;27;20396;-77
2021/12/31 12:50:20;;;;;;;27.95;15.13;;;;;;;;;;5111202;28;20032;-77
2021/12/31 12:56:14;;;;;;;20.48;12.13;;;;;;;;;;5132075;27;20122;-77
2021/12/31 12:59:37;;;;;;;24.55;13.15;;;;;;;;;;5111737;27;20944;-78
2021/12/31 13:07:52;;;;;;;17.70;9.50;;;;;;;;;;4971298;22;1546224;-69
2021/12/31 13:11:27;;;;;;;21.85;10.25;;;;;;;;;;5111162;27;20722;-69
2021/12/31 13:13:53;;;;;;;16.45;9.55;;;;;;;;;;5109938;28;20051;-71
2021/12/31 13:16:20;;;;;;;22.88;13.50;;;;;;;;;;5110819;28;20023;-70
2021/12/31 13:22:32;;;;;;;32.60;15.38;;;;;;;;;;5111345;27;20400;-69
2021/12/31 13:26:26;;;;;;;46.05;21.58;;;;;;;;;;5111473;27;20739;-71
2021/12/31 13:28:56;;;;;;;22.17;12.40;;;;;;;;;;5111225;28;20074;-71
2021/12/31 13:32:36;;;;;;;26.08;13.32;;;;;;;;;;5111646;27;20396;-71
2021/12/31 13:35:06;;;;;;;18.75;10.23;;;;;;;;;;5111194;28;20046;-71
2021/12/31 13:39:13;;;;;;;15.13;10.50;;;;;;;;;;5111292;27;20400;-70
2021/12/31 13:41:46;;;;;;;18.15;8.95;;;;;;;;;;5111399;28;20085;-72
2021/12/31 13:44:14;;;;;;;18.80;10.57;;;;;;;;;;5110752;28;20028;-69
2021/12/31 13:46:41;;;;;;;13.88;9.30;;;;;;;;;;5111367;28;20104;-69
2021/12/31 13:49:54;;;;;;;12.05;7.22;;;;;;;;;;5111617;27;20422;-72
2021/12/31 13:54:41;;;;;;;12.25;7.35;;;;;;;;;;5111430;27;20392;-71
2021/12/31 13:57:21;;;;;;;17.15;8.90;;;;;;;;;;5110803;28;20102;-70
2021/12/31 14:01:13;;;;;;;17.80;8.45;;;;;;;;;;5111222;27;20389;-70
2021/12/31 14:03:40;;;;;;;21.15;11.23;;;;;;;;;;5110748;28;20030;-71
2021/12/31 14:06:15;;;;;;;22.85;12.48;;;;;;;;;;5111177;28;20081;-71
2021/12/31 14:08:42;;;;;;;20.70;10.82;;;;;;;;;;5111300;28;20020;-71
2021/12/31 14:11:09;;;;;;;20.02;10.40;;;;;;;;;;5110661;28;20024;-71
2021/12/31 14:13:39;;;;;;;27.50;14.93;;;;;;;;;;5109641;28;20024;-71
2021/12/31 14:18:48;;;;;;;29.50;14.88;;;;;;;;;;5110942;27;20393;-71
2021/12/31 14:21:33;;;;;;;35.95;20.48;;;;;;;;;;5111433;27;20392;-71
2021/12/31 14:26:36;;;;;;;29.85;18.35;;;;;;;;;;5110809;27;20396;-71
2021/12/31 14:34:06;;;;;;;30.75;17.00;;;;;;;;;;5111077;27;20419;-71
2021/12/31 14:36:33;;;;;;;28.33;16.88;;;;;;;;;;5111241;28;20035;-71
2021/12/31 14:38:59;;;;;;;47.70;29.35;;;;;;;;;;5110871;28;20466;-70
2021/12/31 14:41:25;;;;;;;37.83;21.73;;;;;;;;;;5111446;28;20058;-70
2021/12/31 14:46:04;;;;;;;28.92;13.90;;;;;;;;;;5110818;27;20861;-71
2021/12/31 14:48:31;;;;;;;27.05;16.90;;;;;;;;;;5111160;28;20407;-71
2021/12/31 14:50:57;;;;;;;27.63;13.57;;;;;;;;;;5111083;28;20028;-71
2021/12/31 14:53:23;;;;;;;35.30;18.58;;;;;;;;;;5110666;28;20020;-71
2021/12/31 14:55:49;;;;;;;33.15;18.48;;;;;;;;;;5111099;28;20034;-71
2021/12/31 14:58:15;;;;;;;19.45;10.88;;;;;;;;;;5110963;28;20539;-71
2021/12/31 15:00:42;;;;;;;23.95;14.63;;;;;;;;;;5110672;28;20526;-70
2021/12/31 15:05:10;;;;;;;32.38;17.58;;;;;;;;;;5111904;27;20737;-69
2021/12/31 15:09:40;;;;;;;22.58;14.45;;;;;;;;;;5111166;27;20385;-70
2021/12/31 15:12:07;;;;;;;20.88;12.50;;;;;;;;;;5111361;28;20027;-70
2021/12/31 15:15:06;;;;;;;21.60;13.15;;;;;;;;;;5111193;27;20398;-69
2021/12/31 15:17:33;;;;;;;23.67;11.35;;;;;;;;;;5109906;28;20115;-69
2021/12/31 15:19:59;;;;;;;18.67;12.30;;;;;;;;;;5111245;28;20030;-70
2021/12/31 15:22:25;;;;;;;22.35;12.00;;;;;;;;;;5110785;28;20023;-69
2021/12/31 15:24:51;;;;;;;25.73;14.80;;;;;;;;;;5111143;28;20023;-70
2021/12/31 15:27:18;;;;;;;31.58;15.80;;;;;;;;;;5111310;28;20020;-69
2021/12/31 15:29:49;;;;;;;43.58;23.00;;;;;;;;;;5110738;28;20028;-69
2021/12/31 15:32:16;;;;;;;31.92;20.77;;;;;;;;;;5109960;28;20353;-69
2021/12/31 15:34:42;;;;;;;32.25;19.08;;;;;;;;;;5111356;28;20031;-70
2021/12/31 15:37:09;;;;;;;31.98;17.80;;;;;;;;;;5110407;28;20024;-69
2021/12/31 15:39:36;;;;;;;55.65;30.30;;;;;;;;;;5110800;28;20093;-69
2021/12/31 15:42:03;;;;;;;41.78;24.33;;;;;;;;;;5110382;28;20065;-70
2021/12/31 15:44:29;;;;;;;36.08;21.98;;;;;;;;;;5109340;28;20023;-69
2021/12/31 15:46:55;;;;;;;21.25;11.82;;;;;;;;;;5110630;28;20488;-69
2021/12/31 15:49:21;;;;;;;26.25;12.23;;;;;;;;;;5110321;28;20069;-70
2021/12/31 15:51:48;;;;;;;19.58;11.05;;;;;;;;;;5110558;28;20434;-70
2021/12/31 15:54:14;;;;;;;23.77;13.73;;;;;;;;;;5110382;28;20028;-70
2021/12/31 15:56:41;;;;;;;29.63;16.90;;;;;;;;;;5110543;28;20020;-70
2021/12/31 15:59:07;;;;;;;30.30;16.15;;;;;;;;;;5110477;28;20028;-69
2021/12/31 16:01:33;;;;;;;30.45;17.58;;;;;;;;;;5110689;28;20391;-69